createdAt,value
2023-03-26T00:01:05.726Z,0.40
2023-03-26T00:03:57.400Z,0.83
2023-03-26T00:06:49.003Z,0.30
2023-03-26T00:09:37.962Z,0.20
2023-03-26T00:12:26.281Z,0.87
2023-03-26T00:15:14.181Z,0.57
2023-03-26T00:18:03.148Z,0.10
2023-03-26T00:20:51.237Z,1.10
2023-03-26T00:23:41.514Z,0.87
2023-03-26T00:26:31.118Z,0.70
2023-03-26T00:29:19.072Z,0.27
2023-03-26T00:32:07.544Z,1.27
2023-03-26T00:34:56.541Z,0.73
2023-03-26T00:37:46.106Z,0.57
2023-03-26T00:40:36.738Z,1.70
2023-03-26T00:43:26.475Z,0.47
2023-03-26T00:46:15.140Z,0.40
2023-03-26T00:49:04.087Z,0.20
2023-03-26T00:51:52.113Z,0.40
2023-03-26T00:54:40.205Z,0.60
2023-03-26T00:57:35.728Z,2.13
2023-03-26T01:00:31.788Z,0.10
2023-03-26T01:03:27.840Z,0.63
2023-03-26T01:06:23.636Z,0.17
2023-03-26T01:09:17.039Z,0.10
2023-03-26T01:12:08.753Z,0.20
2023-03-26T01:15:01.205Z,0.10
2023-03-26T01:17:52.076Z,0.57
2023-03-26T01:20:46.616Z,0.10
2023-03-26T01:23:41.635Z,1.30
2023-03-26T01:26:48.877Z,0.93
2023-03-26T01:29:43.985Z,1.17
2023-03-26T01:32:57.783Z,0.40
2023-03-26T01:35:52.380Z,0.30
2023-03-26T01:38:48.231Z,0.30
2023-03-26T01:41:44.394Z,0.50
2023-03-26T01:44:36.704Z,0.20
2023-03-26T01:47:25.030Z,0.17
2023-03-26T01:50:13.620Z,2.87
2023-03-26T01:53:02.070Z,0.30
2023-03-26T01:56:02.009Z,0.70
2023-03-26T01:59:07.689Z,0.67
2023-03-26T02:02:02.098Z,0.30
2023-03-26T02:04:55.590Z,1.53
2023-03-26T02:07:47.938Z,0.77
2023-03-26T02:10:39.852Z,0.60
2023-03-26T02:13:28.223Z,1.03
2023-03-26T02:16:18.593Z,1.77
2023-03-26T02:19:15.865Z,1.63
2023-03-26T02:22:04.560Z,1.60
2023-03-26T02:24:52.515Z,0.60
2023-03-26T02:27:40.704Z,3.30
2023-03-26T02:30:29.859Z,0.67
2023-03-26T02:33:19.661Z,1.40
2023-03-26T02:36:08.844Z,1.77
2023-03-26T02:38:58.226Z,1.53
2023-03-26T02:41:46.169Z,1.20
2023-03-26T02:44:34.084Z,0.80
2023-03-26T02:47:22.157Z,1.20
2023-03-26T02:50:11.944Z,3.17
2023-03-26T02:53:00.759Z,2.60
2023-03-26T02:55:49.016Z,1.83
2023-03-26T02:58:37.006Z,5.13
2023-03-26T03:01:25.257Z,1.73
2023-03-26T03:04:14.046Z,3.67
2023-03-26T03:07:03.303Z,6.17
2023-03-26T03:09:51.303Z,3.13
2023-03-26T03:12:39.294Z,3.73
2023-03-26T03:15:27.379Z,5.67
2023-03-26T03:18:15.368Z,7.43
2023-03-26T03:21:03.448Z,5.70
2023-03-26T03:23:52.864Z,11.33
2023-03-26T03:26:41.266Z,9.93
2023-03-26T03:29:29.270Z,8.83
2023-03-26T03:32:17.185Z,6.20
2023-03-26T03:35:05.833Z,6.87
2023-03-26T03:37:53.751Z,15.00
2023-03-26T03:40:43.269Z,10.30
2023-03-26T03:43:32.625Z,10.33
2023-03-26T03:46:20.672Z,8.30
2023-03-26T03:49:08.697Z,9.77
2023-03-26T03:51:57.032Z,5.80
2023-03-26T03:54:45.068Z,10.20
2023-03-26T03:57:34.674Z,10.10
2023-03-26T04:00:23.116Z,14.17
2023-03-26T04:03:14.285Z,12.63
2023-03-26T04:06:02.848Z,10.27
2023-03-26T04:08:50.859Z,8.90
2023-03-26T04:11:38.795Z,10.73
2023-03-26T04:14:28.112Z,10.13
2023-03-26T04:17:16.082Z,12.23
2023-03-26T04:20:07.039Z,12.00
2023-03-26T04:22:55.022Z,16.80
2023-03-26T04:25:45.841Z,14.03
2023-03-26T04:28:42.250Z,12.70
2023-03-26T04:31:34.046Z,12.00
2023-03-26T04:34:25.137Z,11.27
2023-03-26T04:37:22.446Z,19.47
2023-03-26T04:40:14.798Z,16.80
2023-03-26T04:43:03.292Z,10.60
2023-03-26T04:45:52.356Z,10.33
2023-03-26T04:48:41.759Z,12.53
2023-03-26T04:51:38.250Z,12.47
2023-03-26T04:54:26.250Z,7.43
2023-03-26T04:57:18.458Z,11.03
2023-03-26T05:00:15.373Z,13.17
2023-03-26T05:03:03.428Z,11.57
2023-03-26T05:05:53.053Z,13.37
2023-03-26T05:08:41.882Z,13.93
2023-03-26T05:11:30.176Z,11.90
2023-03-26T05:14:18.328Z,16.07
2023-03-26T05:17:10.718Z,10.50
2023-03-26T05:19:58.742Z,11.63
2023-03-26T05:22:48.690Z,12.37
2023-03-26T05:25:36.768Z,6.77
2023-03-26T05:28:26.635Z,14.50
2023-03-26T05:31:15.530Z,7.63
2023-03-26T05:34:03.737Z,13.80
2023-03-26T05:36:51.811Z,16.10
2023-03-26T05:39:41.238Z,13.33
2023-03-26T05:42:29.244Z,15.17
2023-03-26T05:45:17.192Z,11.73
2023-03-26T05:48:05.562Z,11.80
2023-03-26T05:50:55.491Z,14.63
2023-03-26T05:53:44.227Z,9.73
2023-03-26T05:56:33.678Z,15.77
2023-03-26T05:59:22.018Z,11.80
2023-03-26T06:02:10.729Z,10.77
2023-03-26T06:04:58.749Z,8.77
2023-03-26T06:07:46.881Z,14.40
2023-03-26T06:10:34.883Z,11.60
2023-03-26T06:13:24.123Z,8.50
2023-03-26T06:16:27.013Z,7.30
2023-03-26T06:19:15.859Z,10.63
2023-03-26T06:22:04.042Z,6.07
2023-03-26T06:24:52.846Z,8.47
2023-03-26T06:27:40.899Z,6.97
2023-03-26T06:30:30.325Z,7.80
2023-03-26T06:33:18.343Z,6.83
2023-03-26T06:36:07.126Z,6.70
2023-03-26T06:38:55.426Z,8.20
2023-03-26T06:41:43.443Z,9.10
2023-03-26T06:44:31.472Z,8.80
2023-03-26T06:47:21.128Z,8.17
2023-03-26T06:50:11.500Z,9.97
2023-03-26T06:53:00.042Z,10.07
2023-03-26T06:55:48.069Z,7.40
2023-03-26T06:58:36.295Z,10.33
2023-03-26T07:01:24.786Z,7.37
2023-03-26T07:04:14.242Z,9.27
2023-03-26T07:07:02.270Z,9.67
2023-03-26T07:09:50.482Z,9.63
2023-03-26T07:12:38.670Z,8.33
2023-03-26T07:15:28.406Z,10.97
2023-03-26T07:18:17.465Z,10.27
2023-03-26T07:21:08.242Z,9.13
2023-03-26T07:23:56.813Z,12.97
2023-03-26T07:26:53.132Z,13.27
2023-03-26T07:29:47.294Z,9.10
2023-03-26T07:32:43.337Z,10.30
2023-03-26T07:35:37.951Z,7.77
2023-03-26T07:38:37.817Z,14.13
2023-03-26T07:41:32.459Z,10.93
2023-03-26T07:44:32.268Z,8.30
2023-03-26T07:47:28.273Z,10.97
2023-03-26T07:50:18.923Z,8.33
2023-03-26T07:53:07.749Z,7.67
2023-03-26T07:56:03.709Z,10.57
2023-03-26T07:59:07.716Z,12.70
2023-03-26T08:02:11.577Z,6.93
2023-03-26T08:05:11.004Z,12.30
2023-03-26T08:08:09.340Z,12.00
2023-03-26T08:11:10.465Z,9.97
2023-03-26T08:14:07.660Z,10.07
2023-03-26T08:17:02.753Z,7.07
2023-03-26T08:20:07.720Z,10.60
2023-03-26T08:23:02.082Z,10.00
2023-03-26T08:25:59.297Z,10.20
2023-03-26T08:28:59.667Z,9.17
2023-03-26T08:31:49.854Z,6.23
2023-03-26T08:34:38.160Z,7.33
2023-03-26T08:37:27.364Z,9.27
2023-03-26T08:40:20.368Z,7.73
2023-03-26T08:43:27.256Z,8.50
2023-03-26T08:46:35.944Z,8.90
2023-03-26T08:49:46.035Z,11.40
2023-03-26T08:52:55.528Z,10.60
2023-03-26T08:55:53.715Z,4.63
2023-03-26T08:59:13.256Z,7.33
2023-03-26T09:02:43.267Z,5.47
2023-03-26T09:06:06.224Z,10.00
2023-03-26T09:09:41.009Z,10.43
2023-03-26T09:13:02.565Z,6.10
2023-03-26T09:16:28.754Z,4.23
2023-03-26T09:19:46.580Z,7.10
2023-03-26T09:23:09.735Z,7.00
2023-03-26T09:26:28.190Z,7.20
2023-03-26T09:29:47.166Z,8.40
2023-03-26T09:33:17.452Z,6.97
2023-03-26T09:36:23.584Z,4.67
2023-03-26T09:39:23.943Z,7.63
2023-03-26T09:42:19.244Z,9.30
2023-03-26T09:45:32.131Z,7.57
2023-03-26T09:48:45.853Z,9.73
2023-03-26T09:51:53.499Z,6.03
2023-03-26T09:55:00.350Z,5.93
2023-03-26T09:58:22.757Z,7.37
2023-03-26T10:01:15.555Z,8.60
2023-03-26T10:04:38.000Z,4.97
2023-03-26T10:07:48.918Z,5.33
2023-03-26T10:10:48.958Z,7.27
2023-03-26T10:13:50.921Z,8.97
2023-03-26T10:16:51.907Z,4.53
2023-03-26T10:19:52.092Z,7.27
2023-03-26T10:22:50.238Z,7.03
2023-03-26T10:26:04.334Z,6.20
2023-03-26T10:29:13.558Z,8.53
2023-03-26T10:32:17.936Z,6.53
2023-03-26T10:35:19.838Z,5.67
2023-03-26T10:38:17.157Z,7.17
2023-03-26T10:41:14.501Z,6.53
2023-03-26T10:44:43.556Z,4.87
2023-03-26T10:47:48.646Z,4.10
2023-03-26T10:51:00.672Z,4.60
2023-03-26T10:53:55.299Z,4.90
2023-03-26T10:56:47.490Z,2.43
2023-03-26T10:59:35.485Z,2.50
2023-03-26T11:02:30.997Z,5.63
2023-03-26T11:05:33.276Z,3.20
2023-03-26T11:08:31.818Z,2.50
2023-03-26T11:11:27.736Z,3.13
2023-03-26T11:14:33.813Z,2.17
2023-03-26T11:17:40.734Z,3.40
2023-03-26T11:20:38.664Z,2.83
2023-03-26T11:23:35.757Z,4.60
2023-03-26T11:26:33.188Z,2.23
2023-03-26T11:29:40.261Z,2.17
2023-03-26T11:32:37.699Z,2.23
2023-03-26T11:35:40.157Z,1.90
2023-03-26T11:38:37.403Z,1.73
2023-03-26T11:41:28.206Z,1.43
2023-03-26T11:44:21.564Z,3.17
2023-03-26T11:47:15.076Z,0.87
2023-03-26T11:50:04.392Z,1.17
2023-03-26T11:52:52.663Z,1.73
2023-03-26T11:55:45.294Z,1.23
2023-03-26T11:58:38.324Z,1.10
2023-03-26T12:01:30.470Z,1.17
2023-03-26T12:04:26.394Z,2.40
2023-03-26T12:07:18.453Z,1.60
2023-03-26T12:10:18.658Z,1.30
2023-03-26T12:13:28.652Z,1.13
2023-03-26T12:16:19.890Z,1.10
2023-03-26T12:19:22.272Z,1.00
2023-03-26T12:22:29.480Z,0.80
2023-03-26T12:25:20.350Z,0.40
2023-03-26T12:28:19.750Z,1.00
2023-03-26T12:31:12.534Z,1.03
2023-03-26T12:34:14.427Z,0.87
2023-03-26T12:37:05.594Z,1.73
2023-03-26T12:40:14.303Z,1.07
2023-03-26T12:44:51.503Z,0.93
2023-03-26T12:47:57.089Z,1.17
2023-03-26T12:49:34.052Z,1.53
2023-03-26T12:52:38.302Z,0.63
2023-03-26T12:55:42.282Z,1.57
2023-03-26T12:58:47.881Z,1.73
2023-03-26T13:01:45.653Z,1.37
2023-03-26T13:05:05.036Z,1.80
2023-03-26T13:08:07.969Z,0.57
2023-03-26T13:11:05.155Z,1.30
2023-03-26T13:14:13.822Z,1.40
2023-03-26T13:17:06.370Z,1.90
2023-03-26T13:20:06.675Z,1.20
2023-03-26T13:23:03.478Z,2.13
2023-03-26T13:26:01.701Z,1.53
2023-03-26T13:28:58.574Z,1.03
2023-03-26T13:31:55.950Z,1.03
2023-03-26T13:34:58.143Z,1.57
2023-03-26T13:37:52.158Z,1.73
2023-03-26T13:40:50.779Z,0.90
2023-03-26T13:43:46.260Z,1.77
2023-03-26T13:46:39.413Z,2.37
2023-03-26T13:49:37.190Z,1.83
2023-03-26T13:52:31.337Z,2.80
2023-03-26T13:55:23.334Z,1.40
2023-03-26T13:58:21.884Z,1.10
2023-03-26T14:01:16.627Z,1.00
2023-03-26T14:04:17.753Z,0.70
2023-03-26T14:07:13.093Z,1.03
2023-03-26T14:10:06.180Z,1.30
2023-03-26T14:12:58.490Z,2.10
2023-03-26T14:15:51.193Z,1.37
2023-03-26T14:18:47.272Z,2.07
2023-03-26T14:21:47.246Z,1.10
2023-03-26T14:24:53.591Z,0.90
2023-03-26T14:28:09.349Z,1.10
2023-03-26T14:31:19.473Z,0.53
2023-03-26T14:34:38.413Z,1.23
2023-03-26T14:37:57.384Z,1.00
2023-03-26T14:40:59.171Z,2.80
2023-03-26T14:44:20.644Z,1.40
2023-03-26T14:47:21.615Z,2.33
2023-03-26T14:50:55.160Z,0.87
2023-03-26T14:53:47.495Z,1.60
2023-03-26T14:56:54.276Z,1.10
2023-03-26T15:00:22.829Z,1.97
2023-03-26T15:03:56.513Z,1.37
2023-03-26T15:07:18.803Z,0.90
2023-03-26T15:10:34.195Z,2.30
2023-03-26T15:14:16.480Z,3.00
2023-03-26T15:17:54.371Z,1.70
2023-03-26T15:21:43.156Z,3.17
2023-03-26T15:25:07.539Z,1.40
2023-03-26T15:28:13.164Z,1.43
2023-03-26T15:31:21.009Z,3.13
2023-03-26T15:34:44.939Z,1.80
2023-03-26T15:38:00.372Z,1.97
2023-03-26T15:41:16.576Z,1.37
2023-03-26T15:47:33.769Z,2.50
2023-03-26T15:50:32.077Z,1.40
2023-03-26T15:53:35.352Z,1.57
2023-03-26T15:56:49.064Z,2.57
2023-03-26T15:59:52.271Z,2.53
2023-03-26T16:02:50.469Z,1.33
2023-03-26T16:05:54.104Z,1.53
2023-03-26T16:08:54.741Z,1.43
2023-03-26T16:11:51.577Z,1.63
2023-03-26T16:14:47.858Z,1.87
2023-03-26T16:18:10.282Z,2.60
2023-03-26T16:21:37.936Z,1.20
2023-03-26T16:24:31.366Z,1.97
2023-03-26T16:27:32.481Z,2.17
2023-03-26T16:30:30.166Z,1.77
2023-03-26T16:33:21.277Z,2.23
2023-03-26T16:36:25.850Z,3.00
2023-03-26T16:39:22.014Z,2.07
2023-03-26T16:42:34.821Z,2.13
2023-03-26T16:45:30.766Z,1.53
2023-03-26T16:48:27.550Z,1.30
2023-03-26T16:51:24.011Z,1.73
2023-03-26T16:54:20.055Z,2.53
2023-03-26T16:57:19.257Z,2.10
2023-03-26T17:00:30.037Z,1.70
2023-03-26T17:03:28.504Z,2.23
2023-03-26T17:06:47.988Z,3.63
2023-03-26T17:09:51.616Z,3.10
2023-03-26T17:12:42.864Z,1.77
2023-03-26T17:15:41.486Z,1.70
2023-03-26T17:18:39.706Z,1.67
2023-03-26T17:21:46.226Z,1.07
2023-03-26T17:24:45.911Z,0.80
2023-03-26T17:27:44.156Z,2.63
2023-03-26T17:30:51.513Z,1.33
2023-03-26T17:33:41.089Z,4.57
2023-03-26T17:36:41.924Z,1.53
2023-03-26T17:40:12.184Z,0.80
2023-03-26T17:43:09.916Z,1.20
2023-03-26T17:46:02.899Z,1.37
2023-03-26T17:48:59.300Z,0.90
2023-03-26T17:51:53.114Z,0.60
2023-03-26T17:54:45.295Z,0.53
2023-03-26T17:57:41.980Z,0.27
2023-03-26T18:00:35.598Z,0.20
2023-03-26T18:03:31.101Z,0.50
2023-03-26T18:06:37.652Z,0.23
2023-03-26T18:09:45.848Z,0.17
2023-03-26T18:12:45.709Z,0.40
2023-03-26T18:15:50.242Z,0.97
2023-03-26T18:18:46.061Z,0.30
2023-03-26T18:21:37.282Z,0.57
2023-03-26T18:24:28.615Z,0.30
2023-03-26T18:27:19.082Z,0.47
2023-03-26T18:30:16.703Z,1.87
2023-03-26T18:33:14.366Z,0.50
2023-03-26T18:36:03.648Z,0.60
2023-03-26T18:38:51.765Z,0.30
2023-03-26T18:41:41.965Z,0.43
2023-03-26T18:44:30.078Z,2.00
2023-03-26T18:47:18.740Z,0.80
2023-03-26T18:50:15.547Z,2.50
2023-03-26T18:53:06.339Z,2.23
2023-03-26T18:55:54.350Z,2.07
2023-03-26T18:58:43.870Z,2.17
2023-03-26T19:01:33.651Z,2.60
2023-03-26T19:04:21.779Z,3.20
2023-03-26T19:07:14.692Z,9.20
2023-03-26T19:10:02.756Z,9.10
2023-03-26T19:12:57.208Z,8.73
2023-03-26T19:15:47.998Z,11.00
2023-03-26T19:18:44.193Z,15.37
2023-03-26T19:21:33.999Z,11.77
2023-03-26T19:24:24.094Z,12.57
2023-03-26T19:27:13.094Z,13.63
2023-03-26T19:30:01.115Z,12.00
2023-03-26T19:32:54.512Z,12.50
2023-03-26T19:35:44.037Z,12.10
2023-03-26T19:38:42.731Z,10.40
2023-03-26T19:41:35.981Z,13.57
2023-03-26T19:44:28.516Z,10.73
2023-03-26T19:47:19.911Z,13.30
2023-03-26T19:50:24.829Z,10.73
2023-03-26T19:53:17.815Z,10.03
2023-03-26T19:56:13.470Z,13.17
2023-03-26T19:59:02.922Z,9.90
2023-03-26T20:01:50.914Z,10.77
2023-03-26T20:04:39.001Z,9.20
2023-03-26T20:07:35.949Z,15.03
2023-03-26T20:10:24.343Z,7.30
2023-03-26T20:13:17.216Z,12.60
2023-03-26T20:16:12.617Z,10.90
2023-03-26T20:19:02.327Z,11.13
2023-03-26T20:21:52.730Z,10.30
2023-03-26T20:24:41.319Z,12.00
2023-03-26T20:27:29.975Z,9.47
2023-03-26T20:30:27.451Z,9.87
2023-03-26T20:33:27.109Z,10.70
2023-03-26T20:36:34.287Z,10.43
2023-03-26T20:39:24.126Z,14.80
2023-03-26T20:42:15.453Z,11.70
2023-03-26T20:45:04.514Z,14.73
2023-03-26T20:47:53.177Z,11.67
2023-03-26T20:50:50.374Z,14.77
2023-03-26T20:53:41.500Z,13.27
2023-03-26T20:56:29.463Z,11.67
2023-03-26T20:59:21.632Z,12.90
2023-03-26T21:02:12.112Z,9.80
2023-03-26T21:05:00.138Z,13.70
2023-03-26T21:07:49.938Z,9.97
2023-03-26T21:10:38.432Z,12.00
2023-03-26T21:13:36.600Z,14.77
2023-03-26T21:16:25.115Z,14.43
2023-03-26T21:19:13.879Z,11.27
2023-03-26T21:22:13.677Z,10.57
2023-03-26T21:25:17.036Z,10.73
2023-03-26T21:28:24.044Z,16.70
2023-03-26T21:31:18.378Z,11.50
2023-03-26T21:34:08.265Z,13.53
2023-03-26T21:36:56.854Z,11.80
2023-03-26T21:39:45.584Z,10.33
2023-03-26T21:42:35.709Z,9.90
2023-03-26T21:45:24.373Z,16.23
2023-03-26T21:48:13.357Z,11.73
2023-03-26T21:51:04.913Z,7.93
2023-03-26T21:53:53.687Z,13.60
2023-03-26T21:56:46.544Z,9.37
2023-03-26T21:59:44.723Z,13.93
2023-03-26T22:02:41.190Z,9.40
2023-03-26T22:05:37.850Z,10.67
2023-03-26T22:08:30.952Z,6.57
2023-03-26T22:11:18.960Z,8.90
2023-03-26T22:14:06.938Z,9.93
2023-03-26T22:16:56.223Z,6.80
2023-03-26T22:19:44.246Z,8.03
2023-03-26T22:22:32.190Z,15.53
2023-03-26T22:25:21.644Z,7.77
2023-03-26T22:28:09.727Z,9.97
2023-03-26T22:30:58.274Z,10.57
2023-03-26T22:33:48.338Z,7.17
2023-03-26T22:36:38.392Z,9.87
2023-03-26T22:39:28.843Z,6.10
2023-03-26T22:42:16.766Z,8.63
2023-03-26T22:45:05.250Z,8.77
2023-03-26T22:47:53.635Z,9.93
2023-03-26T22:51:00.964Z,7.17
2023-03-26T22:53:49.040Z,7.03
2023-03-26T22:56:37.266Z,9.93
2023-03-26T22:59:25.520Z,4.77
2023-03-26T23:02:13.628Z,6.77
2023-03-26T23:05:01.681Z,8.77
2023-03-26T23:07:51.888Z,11.07
2023-03-26T23:10:43.971Z,8.67
2023-03-26T23:13:31.982Z,6.63
2023-03-26T23:16:21.661Z,5.67
2023-03-26T23:19:09.752Z,8.73
2023-03-26T23:21:57.869Z,7.63
2023-03-26T23:24:47.104Z,6.37
2023-03-26T23:27:35.608Z,8.27
2023-03-26T23:30:24.191Z,13.57
2023-03-26T23:33:12.663Z,4.67
2023-03-26T23:36:01.059Z,8.97
2023-03-26T23:38:49.811Z,10.33
2023-03-26T23:41:39.142Z,8.07
2023-03-26T23:44:29.404Z,12.20
2023-03-26T23:47:17.299Z,6.07
2023-03-26T23:50:06.665Z,6.97
2023-03-26T23:52:54.650Z,6.93
2023-03-26T23:55:42.565Z,4.87
2023-03-26T23:58:32.479Z,9.33
